sensor_id;sensor_type;location;lat;lon;timestamp;P1;durP1;ratioP1;P2;durP2;ratioP2
71164;SDS011;58859;55.132;-1.586;2023-07-13T00:01:46;1.57;;;0.87;;
71164;SDS011;58859;55.132;-1.586;2023-07-13T00:04:14;1.65;;;1.55;;
71164;SDS011;58859;55.132;-1.586;2023-07-13T00:06:41;3.00;;;1.30;;
71164;SDS011;58859;55.132;-1.586;2023-07-13T00:09:10;1.58;;;1.00;;
71164;SDS011;58859;55.132;-1.586;2023-07-13T00:11:42;1.60;;;0.93;;
71164;SDS011;58859;55.132;-1.586;2023-07-13T00:14:09;2.50;;;1.00;;
71164;SDS011;58859;55.132;-1.586;2023-07-13T00:16:35;1.55;;;0.90;;
71164;SDS011;58859;55.132;-1.586;2023-07-13T00:19:02;1.70;;;1.17;;
71164;SDS011;58859;55.132;-1.586;2023-07-13T00:21:28;1.77;;;1.10;;
71164;SDS011;58859;55.132;-1.586;2023-07-13T00:23:53;1.67;;;1.08;;
71164;SDS011;58859;55.132;-1.586;2023-07-13T00:26:19;1.47;;;1.10;;
71164;SDS011;58859;55.132;-1.586;2023-07-13T00:28:44;1.77;;;1.30;;
71164;SDS011;58859;55.132;-1.586;2023-07-13T00:31:11;2.03;;;1.08;;
71164;SDS011;58859;55.132;-1.586;2023-07-13T00:33:39;1.00;;;0.90;;
71164;SDS011;58859;55.132;-1.586;2023-07-13T00:36:05;4.82;;;1.00;;
71164;SDS011;58859;55.132;-1.586;2023-07-13T00:38:31;2.53;;;1.05;;
71164;SDS011;58859;55.132;-1.586;2023-07-13T00:40:57;3.27;;;1.57;;
71164;SDS011;58859;55.132;-1.586;2023-07-13T00:43:24;2.00;;;1.20;;
71164;SDS011;58859;55.132;-1.586;2023-07-13T00:48:20;2.10;;;1.10;;
71164;SDS011;58859;55.132;-1.586;2023-07-13T00:50:51;3.22;;;1.40;;
71164;SDS011;58859;55.132;-1.586;2023-07-13T00:53:18;4.35;;;1.48;;
71164;SDS011;58859;55.132;-1.586;2023-07-13T00:55:45;2.73;;;1.00;;
71164;SDS011;58859;55.132;-1.586;2023-07-13T00:58:13;1.25;;;1.17;;
71164;SDS011;58859;55.132;-1.586;2023-07-13T01:00:39;3.23;;;1.33;;
71164;SDS011;58859;55.132;-1.586;2023-07-13T01:03:05;2.45;;;1.10;;
71164;SDS011;58859;55.132;-1.586;2023-07-13T01:05:32;1.92;;;1.30;;
71164;SDS011;58859;55.132;-1.586;2023-07-13T01:07:59;2.22;;;1.23;;
71164;SDS011;58859;55.132;-1.586;2023-07-13T01:10:26;1.00;;;1.00;;
71164;SDS011;58859;55.132;-1.586;2023-07-13T01:12:52;3.22;;;1.02;;
71164;SDS011;58859;55.132;-1.586;2023-07-13T01:15:38;1.10;;;1.00;;
71164;SDS011;58859;55.132;-1.586;2023-07-13T01:18:12;2.83;;;1.10;;
71164;SDS011;58859;55.132;-1.586;2023-07-13T01:20:40;2.47;;;1.00;;
71164;SDS011;58859;55.132;-1.586;2023-07-13T01:23:07;2.83;;;1.15;;
71164;SDS011;58859;55.132;-1.586;2023-07-13T01:25:35;1.35;;;1.10;;
71164;SDS011;58859;55.132;-1.586;2023-07-13T01:28:06;4.15;;;1.40;;
71164;SDS011;58859;55.132;-1.586;2023-07-13T01:30:34;5.47;;;1.50;;
71164;SDS011;58859;55.132;-1.586;2023-07-13T01:33:00;1.97;;;1.10;;
71164;SDS011;58859;55.132;-1.586;2023-07-13T01:35:25;1.20;;;1.10;;
71164;SDS011;58859;55.132;-1.586;2023-07-13T01:37:52;1.57;;;0.90;;
71164;SDS011;58859;55.132;-1.586;2023-07-13T01:40:18;5.25;;;1.42;;
71164;SDS011;58859;55.132;-1.586;2023-07-13T01:42:43;1.03;;;0.97;;
71164;SDS011;58859;55.132;-1.586;2023-07-13T01:45:09;2.22;;;1.40;;
71164;SDS011;58859;55.132;-1.586;2023-07-13T01:47:35;2.28;;;1.15;;
71164;SDS011;58859;55.132;-1.586;2023-07-13T01:50:00;1.70;;;1.33;;
71164;SDS011;58859;55.132;-1.586;2023-07-13T01:52:25;1.87;;;1.00;;
71164;SDS011;58859;55.132;-1.586;2023-07-13T01:54:51;1.30;;;1.20;;
71164;SDS011;58859;55.132;-1.586;2023-07-13T01:57:16;2.45;;;1.27;;
71164;SDS011;58859;55.132;-1.586;2023-07-13T01:59:42;2.67;;;1.17;;
71164;SDS011;58859;55.132;-1.586;2023-07-13T02:02:07;3.63;;;1.13;;
71164;SDS011;58859;55.132;-1.586;2023-07-13T02:04:33;1.60;;;1.37;;
71164;SDS011;58859;55.132;-1.586;2023-07-13T02:06:59;1.50;;;0.98;;
71164;SDS011;58859;55.132;-1.586;2023-07-13T02:09:24;1.83;;;1.00;;
71164;SDS011;58859;55.132;-1.586;2023-07-13T02:11:50;1.83;;;1.30;;
71164;SDS011;58859;55.132;-1.586;2023-07-13T02:14:15;1.27;;;1.08;;
71164;SDS011;58859;55.132;-1.586;2023-07-13T02:16:40;2.87;;;1.10;;
71164;SDS011;58859;55.132;-1.586;2023-07-13T02:19:06;3.20;;;1.63;;
71164;SDS011;58859;55.132;-1.586;2023-07-13T02:21:32;1.90;;;1.20;;
71164;SDS011;58859;55.132;-1.586;2023-07-13T02:23:58;2.27;;;1.17;;
71164;SDS011;58859;55.132;-1.586;2023-07-13T02:26:23;3.10;;;1.08;;
71164;SDS011;58859;55.132;-1.586;2023-07-13T02:28:49;2.85;;;1.30;;
71164;SDS011;58859;55.132;-1.586;2023-07-13T02:31:15;2.67;;;1.20;;
71164;SDS011;58859;55.132;-1.586;2023-07-13T02:33:41;2.50;;;1.40;;
71164;SDS011;58859;55.132;-1.586;2023-07-13T02:36:06;1.95;;;0.88;;
71164;SDS011;58859;55.132;-1.586;2023-07-13T02:38:33;4.35;;;1.58;;
71164;SDS011;58859;55.132;-1.586;2023-07-13T02:41:00;2.47;;;1.30;;
71164;SDS011;58859;55.132;-1.586;2023-07-13T02:43:26;1.20;;;1.10;;
71164;SDS011;58859;55.132;-1.586;2023-07-13T02:45:52;1.00;;;0.98;;
71164;SDS011;58859;55.132;-1.586;2023-07-13T02:48:17;2.00;;;1.27;;
71164;SDS011;58859;55.132;-1.586;2023-07-13T02:50:44;1.10;;;1.00;;
71164;SDS011;58859;55.132;-1.586;2023-07-13T02:53:10;2.45;;;1.20;;
71164;SDS011;58859;55.132;-1.586;2023-07-13T02:55:35;2.60;;;1.00;;
71164;SDS011;58859;55.132;-1.586;2023-07-13T02:58:01;1.35;;;1.10;;
71164;SDS011;58859;55.132;-1.586;2023-07-13T03:00:26;1.97;;;1.40;;
71164;SDS011;58859;55.132;-1.586;2023-07-13T03:02:52;2.47;;;1.20;;
71164;SDS011;58859;55.132;-1.586;2023-07-13T03:05:18;3.70;;;1.33;;
71164;SDS011;58859;55.132;-1.586;2023-07-13T03:07:44;1.27;;;1.20;;
71164;SDS011;58859;55.132;-1.586;2023-07-13T03:10:09;2.37;;;1.20;;
71164;SDS011;58859;55.132;-1.586;2023-07-13T03:12:35;2.25;;;1.10;;
71164;SDS011;58859;55.132;-1.586;2023-07-13T03:15:00;3.75;;;1.30;;
71164;SDS011;58859;55.132;-1.586;2023-07-13T03:17:26;2.03;;;1.20;;
71164;SDS011;58859;55.132;-1.586;2023-07-13T03:19:51;2.23;;;0.97;;
71164;SDS011;58859;55.132;-1.586;2023-07-13T03:22:17;3.90;;;1.20;;
71164;SDS011;58859;55.132;-1.586;2023-07-13T03:24:43;3.40;;;1.10;;
71164;SDS011;58859;55.132;-1.586;2023-07-13T03:27:09;1.50;;;0.80;;
71164;SDS011;58859;55.132;-1.586;2023-07-13T03:29:35;3.03;;;1.00;;
71164;SDS011;58859;55.132;-1.586;2023-07-13T03:32:01;5.50;;;1.27;;
71164;SDS011;58859;55.132;-1.586;2023-07-13T03:34:26;3.73;;;1.03;;
71164;SDS011;58859;55.132;-1.586;2023-07-13T03:36:53;5.90;;;1.60;;
71164;SDS011;58859;55.132;-1.586;2023-07-13T03:39:20;2.50;;;1.30;;
71164;SDS011;58859;55.132;-1.586;2023-07-13T03:41:45;2.72;;;1.10;;
71164;SDS011;58859;55.132;-1.586;2023-07-13T03:44:11;0.97;;;0.90;;
71164;SDS011;58859;55.132;-1.586;2023-07-13T03:46:37;2.08;;;0.93;;
71164;SDS011;58859;55.132;-1.586;2023-07-13T03:49:03;3.00;;;1.03;;
71164;SDS011;58859;55.132;-1.586;2023-07-13T03:51:29;4.20;;;1.27;;
71164;SDS011;58859;55.132;-1.586;2023-07-13T03:53:55;2.43;;;1.27;;
71164;SDS011;58859;55.132;-1.586;2023-07-13T03:56:21;1.42;;;1.33;;
71164;SDS011;58859;55.132;-1.586;2023-07-13T03:58:48;2.90;;;1.15;;
71164;SDS011;58859;55.132;-1.586;2023-07-13T04:01:15;2.40;;;1.10;;
71164;SDS011;58859;55.132;-1.586;2023-07-13T04:03:42;1.27;;;1.13;;
71164;SDS011;58859;55.132;-1.586;2023-07-13T04:06:11;4.60;;;0.73;;
71164;SDS011;58859;55.132;-1.586;2023-07-13T04:08:40;1.05;;;1.00;;
71164;SDS011;58859;55.132;-1.586;2023-07-13T04:11:06;2.60;;;0.80;;
71164;SDS011;58859;55.132;-1.586;2023-07-13T04:13:32;2.07;;;1.00;;
71164;SDS011;58859;55.132;-1.586;2023-07-13T04:15:57;2.17;;;1.02;;
71164;SDS011;58859;55.132;-1.586;2023-07-13T04:18:23;2.10;;;1.23;;
71164;SDS011;58859;55.132;-1.586;2023-07-13T04:20:49;0.90;;;0.90;;
71164;SDS011;58859;55.132;-1.586;2023-07-13T04:23:15;1.65;;;1.00;;
71164;SDS011;58859;55.132;-1.586;2023-07-13T04:25:45;2.20;;;0.77;;
71164;SDS011;58859;55.132;-1.586;2023-07-13T04:28:14;2.30;;;1.00;;
71164;SDS011;58859;55.132;-1.586;2023-07-13T04:30:40;3.28;;;0.90;;
71164;SDS011;58859;55.132;-1.586;2023-07-13T04:33:05;2.13;;;0.87;;
71164;SDS011;58859;55.132;-1.586;2023-07-13T04:35:31;4.33;;;1.10;;
71164;SDS011;58859;55.132;-1.586;2023-07-13T04:37:56;1.27;;;1.10;;
71164;SDS011;58859;55.132;-1.586;2023-07-13T04:40:22;1.25;;;0.90;;
71164;SDS011;58859;55.132;-1.586;2023-07-13T04:42:48;2.70;;;1.37;;
71164;SDS011;58859;55.132;-1.586;2023-07-13T04:45:13;1.08;;;0.98;;
71164;SDS011;58859;55.132;-1.586;2023-07-13T04:47:40;5.37;;;1.03;;
71164;SDS011;58859;55.132;-1.586;2023-07-13T04:50:06;0.90;;;0.90;;
71164;SDS011;58859;55.132;-1.586;2023-07-13T04:52:32;0.95;;;0.70;;
71164;SDS011;58859;55.132;-1.586;2023-07-13T04:54:59;2.45;;;0.85;;
71164;SDS011;58859;55.132;-1.586;2023-07-13T04:57:26;1.30;;;0.80;;
71164;SDS011;58859;55.132;-1.586;2023-07-13T04:59:52;3.55;;;1.20;;
71164;SDS011;58859;55.132;-1.586;2023-07-13T05:02:17;1.20;;;0.87;;
71164;SDS011;58859;55.132;-1.586;2023-07-13T05:04:45;3.23;;;0.83;;
71164;SDS011;58859;55.132;-1.586;2023-07-13T05:07:11;2.83;;;0.60;;
71164;SDS011;58859;55.132;-1.586;2023-07-13T05:09:37;1.03;;;0.93;;
71164;SDS011;58859;55.132;-1.586;2023-07-13T05:12:02;1.75;;;1.17;;
71164;SDS011;58859;55.132;-1.586;2023-07-13T05:14:28;0.90;;;0.90;;
71164;SDS011;58859;55.132;-1.586;2023-07-13T05:16:54;2.15;;;1.10;;
71164;SDS011;58859;55.132;-1.586;2023-07-13T05:19:19;5.87;;;1.00;;
71164;SDS011;58859;55.132;-1.586;2023-07-13T05:21:44;1.70;;;0.70;;
71164;SDS011;58859;55.132;-1.586;2023-07-13T05:24:10;3.50;;;0.90;;
71164;SDS011;58859;55.132;-1.586;2023-07-13T05:26:35;1.33;;;0.70;;
71164;SDS011;58859;55.132;-1.586;2023-07-13T05:29:01;1.37;;;0.77;;
71164;SDS011;58859;55.132;-1.586;2023-07-13T05:31:26;0.53;;;0.50;;
71164;SDS011;58859;55.132;-1.586;2023-07-13T05:33:53;3.17;;;0.98;;
71164;SDS011;58859;55.132;-1.586;2023-07-13T05:36:18;3.10;;;0.70;;
71164;SDS011;58859;55.132;-1.586;2023-07-13T05:38:43;2.13;;;0.80;;
71164;SDS011;58859;55.132;-1.586;2023-07-13T05:41:09;1.37;;;1.00;;
71164;SDS011;58859;55.132;-1.586;2023-07-13T05:43:34;1.40;;;0.85;;
71164;SDS011;58859;55.132;-1.586;2023-07-13T05:45:59;1.67;;;0.80;;
71164;SDS011;58859;55.132;-1.586;2023-07-13T05:48:25;0.87;;;0.87;;
71164;SDS011;58859;55.132;-1.586;2023-07-13T05:50:50;1.53;;;0.73;;
71164;SDS011;58859;55.132;-1.586;2023-07-13T05:53:16;1.15;;;0.90;;
71164;SDS011;58859;55.132;-1.586;2023-07-13T05:55:42;1.27;;;0.70;;
71164;SDS011;58859;55.132;-1.586;2023-07-13T05:58:08;2.22;;;0.88;;
71164;SDS011;58859;55.132;-1.586;2023-07-13T06:00:34;2.23;;;0.93;;
71164;SDS011;58859;55.132;-1.586;2023-07-13T06:02:59;5.63;;;0.80;;
71164;SDS011;58859;55.132;-1.586;2023-07-13T06:05:25;3.00;;;0.53;;
71164;SDS011;58859;55.132;-1.586;2023-07-13T06:07:52;1.00;;;0.60;;
71164;SDS011;58859;55.132;-1.586;2023-07-13T06:10:17;4.23;;;0.80;;
71164;SDS011;58859;55.132;-1.586;2023-07-13T06:12:43;2.20;;;0.50;;
71164;SDS011;58859;55.132;-1.586;2023-07-13T06:15:08;1.33;;;0.70;;
71164;SDS011;58859;55.132;-1.586;2023-07-13T06:17:34;0.88;;;0.55;;
71164;SDS011;58859;55.132;-1.586;2023-07-13T06:19:59;1.90;;;0.70;;
71164;SDS011;58859;55.132;-1.586;2023-07-13T06:22:24;4.67;;;0.90;;
71164;SDS011;58859;55.132;-1.586;2023-07-13T06:24:50;2.28;;;0.60;;
71164;SDS011;58859;55.132;-1.586;2023-07-13T06:27:16;1.10;;;0.40;;
71164;SDS011;58859;55.132;-1.586;2023-07-13T06:29:42;1.63;;;0.50;;
71164;SDS011;58859;55.132;-1.586;2023-07-13T06:32:10;0.93;;;0.70;;
71164;SDS011;58859;55.132;-1.586;2023-07-13T06:34:35;1.58;;;0.60;;
71164;SDS011;58859;55.132;-1.586;2023-07-13T06:37:01;2.57;;;0.70;;
71164;SDS011;58859;55.132;-1.586;2023-07-13T06:39:26;1.77;;;0.60;;
71164;SDS011;58859;55.132;-1.586;2023-07-13T06:41:51;1.87;;;0.60;;
71164;SDS011;58859;55.132;-1.586;2023-07-13T06:44:17;0.33;;;0.33;;
71164;SDS011;58859;55.132;-1.586;2023-07-13T06:46:42;2.45;;;0.65;;
71164;SDS011;58859;55.132;-1.586;2023-07-13T06:49:08;0.90;;;0.37;;
71164;SDS011;58859;55.132;-1.586;2023-07-13T06:51:34;3.45;;;0.60;;
71164;SDS011;58859;55.132;-1.586;2023-07-13T06:54:00;1.33;;;0.57;;
71164;SDS011;58859;55.132;-1.586;2023-07-13T06:56:25;1.33;;;0.30;;
71164;SDS011;58859;55.132;-1.586;2023-07-13T06:58:50;1.63;;;0.63;;
71164;SDS011;58859;55.132;-1.586;2023-07-13T07:01:16;1.00;;;0.80;;
71164;SDS011;58859;55.132;-1.586;2023-07-13T07:03:41;1.13;;;0.40;;
71164;SDS011;58859;55.132;-1.586;2023-07-13T07:06:17;0.60;;;0.40;;
71164;SDS011;58859;55.132;-1.586;2023-07-13T07:08:44;0.50;;;0.50;;
71164;SDS011;58859;55.132;-1.586;2023-07-13T07:11:14;1.67;;;0.65;;
71164;SDS011;58859;55.132;-1.586;2023-07-13T07:13:41;0.33;;;0.30;;
71164;SDS011;58859;55.132;-1.586;2023-07-13T07:16:07;0.40;;;0.40;;
71164;SDS011;58859;55.132;-1.586;2023-07-13T07:18:33;1.08;;;0.57;;
71164;SDS011;58859;55.132;-1.586;2023-07-13T07:20:59;1.97;;;0.50;;
71164;SDS011;58859;55.132;-1.586;2023-07-13T07:23:25;0.82;;;0.32;;
71164;SDS011;58859;55.132;-1.586;2023-07-13T07:25:51;1.17;;;0.40;;
71164;SDS011;58859;55.132;-1.586;2023-07-13T07:28:16;1.20;;;0.40;;
71164;SDS011;58859;55.132;-1.586;2023-07-13T07:30:46;1.80;;;0.40;;
71164;SDS011;58859;55.132;-1.586;2023-07-13T07:33:11;0.43;;;0.40;;
71164;SDS011;58859;55.132;-1.586;2023-07-13T07:35:37;0.55;;;0.50;;
71164;SDS011;58859;55.132;-1.586;2023-07-13T07:38:03;3.17;;;0.53;;
71164;SDS011;58859;55.132;-1.586;2023-07-13T07:40:29;0.98;;;0.50;;
71164;SDS011;58859;55.132;-1.586;2023-07-13T07:42:54;0.47;;;0.47;;
71164;SDS011;58859;55.132;-1.586;2023-07-13T07:45:20;1.08;;;0.50;;
71164;SDS011;58859;55.132;-1.586;2023-07-13T07:47:45;0.70;;;0.30;;
71164;SDS011;58859;55.132;-1.586;2023-07-13T07:50:11;4.20;;;0.83;;
71164;SDS011;58859;55.132;-1.586;2023-07-13T07:52:36;1.42;;;0.57;;
71164;SDS011;58859;55.132;-1.586;2023-07-13T07:55:03;3.03;;;0.50;;
71164;SDS011;58859;55.132;-1.586;2023-07-13T07:57:29;1.10;;;0.40;;
71164;SDS011;58859;55.132;-1.586;2023-07-13T07:59:55;0.73;;;0.50;;
71164;SDS011;58859;55.132;-1.586;2023-07-13T08:02:20;0.27;;;0.20;;
71164;SDS011;58859;55.132;-1.586;2023-07-13T08:04:46;1.60;;;0.60;;
71164;SDS011;58859;55.132;-1.586;2023-07-13T08:07:11;3.65;;;0.40;;
71164;SDS011;58859;55.132;-1.586;2023-07-13T08:09:36;0.73;;;0.43;;
71164;SDS011;58859;55.132;-1.586;2023-07-13T08:12:02;0.43;;;0.20;;
71164;SDS011;58859;55.132;-1.586;2023-07-13T08:14:28;1.38;;;0.30;;
71164;SDS011;58859;55.132;-1.586;2023-07-13T08:16:53;4.33;;;0.50;;
71164;SDS011;58859;55.132;-1.586;2023-07-13T08:19:19;0.77;;;0.50;;
71164;SDS011;58859;55.132;-1.586;2023-07-13T08:21:44;2.90;;;0.40;;
71164;SDS011;58859;55.132;-1.586;2023-07-13T08:24:10;3.25;;;0.57;;
71164;SDS011;58859;55.132;-1.586;2023-07-13T08:26:35;0.80;;;0.50;;
71164;SDS011;58859;55.132;-1.586;2023-07-13T08:29:01;1.33;;;0.40;;
71164;SDS011;58859;55.132;-1.586;2023-07-13T08:31:28;0.90;;;0.38;;
71164;SDS011;58859;55.132;-1.586;2023-07-13T08:33:53;1.60;;;0.53;;
71164;SDS011;58859;55.132;-1.586;2023-07-13T08:36:19;1.90;;;0.40;;
71164;SDS011;58859;55.132;-1.586;2023-07-13T08:38:44;1.15;;;0.50;;
71164;SDS011;58859;55.132;-1.586;2023-07-13T08:41:17;0.68;;;0.38;;
71164;SDS011;58859;55.132;-1.586;2023-07-13T08:43:47;2.33;;;0.30;;
71164;SDS011;58859;55.132;-1.586;2023-07-13T08:54:05;1.60;;;0.50;;
71164;SDS011;58859;55.132;-1.586;2023-07-13T08:56:37;0.95;;;0.50;;
71164;SDS011;58859;55.132;-1.586;2023-07-13T08:59:10;4.07;;;0.80;;
71164;SDS011;58859;55.132;-1.586;2023-07-13T09:15:34;2.08;;;0.60;;
71164;SDS011;58859;55.132;-1.586;2023-07-13T09:23:56;1.30;;;0.47;;
71164;SDS011;58859;55.132;-1.586;2023-07-13T09:26:29;1.33;;;0.40;;
71164;SDS011;58859;55.132;-1.586;2023-07-13T09:29:10;0.45;;;0.45;;
71164;SDS011;58859;55.132;-1.586;2023-07-13T09:31:45;1.88;;;0.70;;
71164;SDS011;58859;55.132;-1.586;2023-07-13T09:34:18;2.22;;;0.30;;
71164;SDS011;58859;55.132;-1.586;2023-07-13T09:36:43;0.50;;;0.40;;
71164;SDS011;58859;55.132;-1.586;2023-07-13T09:45:01;0.65;;;0.30;;
71164;SDS011;58859;55.132;-1.586;2023-07-13T09:47:32;0.57;;;0.50;;
71164;SDS011;58859;55.132;-1.586;2023-07-13T09:50:04;0.77;;;0.40;;
71164;SDS011;58859;55.132;-1.586;2023-07-13T09:55:24;1.73;;;0.32;;
71164;SDS011;58859;55.132;-1.586;2023-07-13T09:57:50;1.85;;;0.45;;
71164;SDS011;58859;55.132;-1.586;2023-07-13T10:00:24;1.38;;;0.52;;
71164;SDS011;58859;55.132;-1.586;2023-07-13T10:02:59;1.65;;;0.30;;
71164;SDS011;58859;55.132;-1.586;2023-07-13T10:05:50;0.85;;;0.57;;
71164;SDS011;58859;55.132;-1.586;2023-07-13T10:10:57;0.68;;;0.50;;
71164;SDS011;58859;55.132;-1.586;2023-07-13T10:13:44;1.40;;;0.57;;
71164;SDS011;58859;55.132;-1.586;2023-07-13T10:16:13;2.88;;;1.23;;
71164;SDS011;58859;55.132;-1.586;2023-07-13T10:18:44;0.80;;;0.35;;
71164;SDS011;58859;55.132;-1.586;2023-07-13T10:21:15;2.25;;;0.70;;
71164;SDS011;58859;55.132;-1.586;2023-07-13T10:23:43;2.67;;;0.20;;
71164;SDS011;58859;55.132;-1.586;2023-07-13T10:26:15;1.75;;;0.40;;
71164;SDS011;58859;55.132;-1.586;2023-07-13T10:28:47;1.27;;;0.60;;
71164;SDS011;58859;55.132;-1.586;2023-07-13T10:31:20;1.30;;;1.15;;
71164;SDS011;58859;55.132;-1.586;2023-07-13T10:33:46;1.35;;;1.17;;
71164;SDS011;58859;55.132;-1.586;2023-07-13T10:36:13;0.83;;;0.43;;
71164;SDS011;58859;55.132;-1.586;2023-07-13T10:38:40;1.77;;;0.60;;
71164;SDS011;58859;55.132;-1.586;2023-07-13T10:41:08;1.58;;;0.60;;
71164;SDS011;58859;55.132;-1.586;2023-07-13T10:46:11;2.40;;;0.88;;
71164;SDS011;58859;55.132;-1.586;2023-07-13T10:48:40;1.10;;;0.60;;
71164;SDS011;58859;55.132;-1.586;2023-07-13T10:51:08;2.13;;;0.80;;
71164;SDS011;58859;55.132;-1.586;2023-07-13T10:53:36;2.05;;;0.77;;
71164;SDS011;58859;55.132;-1.586;2023-07-13T10:58:40;1.38;;;0.40;;
71164;SDS011;58859;55.132;-1.586;2023-07-13T11:01:07;2.90;;;0.60;;
71164;SDS011;58859;55.132;-1.586;2023-07-13T11:03:55;2.40;;;0.50;;
71164;SDS011;58859;55.132;-1.586;2023-07-13T11:08:55;1.95;;;0.70;;
71164;SDS011;58859;55.132;-1.586;2023-07-13T11:21:27;1.23;;;0.45;;
71164;SDS011;58859;55.132;-1.586;2023-07-13T11:24:02;1.08;;;0.50;;
71164;SDS011;58859;55.132;-1.586;2023-07-13T11:31:40;1.37;;;0.43;;
71164;SDS011;58859;55.132;-1.586;2023-07-13T11:34:18;3.50;;;1.10;;
71164;SDS011;58859;55.132;-1.586;2023-07-13T11:36:51;1.38;;;0.68;;
71164;SDS011;58859;55.132;-1.586;2023-07-13T11:39:22;0.40;;;0.40;;
71164;SDS011;58859;55.132;-1.586;2023-07-13T11:41:53;2.17;;;1.02;;
71164;SDS011;58859;55.132;-1.586;2023-07-13T11:44:23;0.70;;;0.50;;
71164;SDS011;58859;55.132;-1.586;2023-07-13T11:46:51;0.50;;;0.50;;
71164;SDS011;58859;55.132;-1.586;2023-07-13T11:49:22;0.95;;;0.57;;
71164;SDS011;58859;55.132;-1.586;2023-07-13T11:51:49;1.58;;;0.60;;
71164;SDS011;58859;55.132;-1.586;2023-07-13T11:56:51;1.27;;;0.30;;
71164;SDS011;58859;55.132;-1.586;2023-07-13T11:59:18;1.80;;;0.40;;
71164;SDS011;58859;55.132;-1.586;2023-07-13T12:01:48;1.40;;;0.60;;
71164;SDS011;58859;55.132;-1.586;2023-07-13T12:04:24;0.70;;;0.40;;
71164;SDS011;58859;55.132;-1.586;2023-07-13T12:06:57;1.10;;;0.50;;
71164;SDS011;58859;55.132;-1.586;2023-07-13T12:09:30;1.60;;;0.50;;
71164;SDS011;58859;55.132;-1.586;2023-07-13T12:11:56;1.83;;;0.60;;
71164;SDS011;58859;55.132;-1.586;2023-07-13T12:14:25;1.90;;;0.50;;
71164;SDS011;58859;55.132;-1.586;2023-07-13T12:16:51;1.15;;;0.50;;
71164;SDS011;58859;55.132;-1.586;2023-07-13T12:19:22;1.17;;;0.50;;
71164;SDS011;58859;55.132;-1.586;2023-07-13T12:21:50;3.03;;;0.65;;
71164;SDS011;58859;55.132;-1.586;2023-07-13T12:24:19;0.75;;;0.60;;
71164;SDS011;58859;55.132;-1.586;2023-07-13T12:27:05;1.87;;;0.50;;
71164;SDS011;58859;55.132;-1.586;2023-07-13T12:29:31;1.67;;;0.35;;
71164;SDS011;58859;55.132;-1.586;2023-07-13T12:31:58;0.88;;;0.57;;
71164;SDS011;58859;55.132;-1.586;2023-07-13T12:34:25;0.75;;;0.40;;
71164;SDS011;58859;55.132;-1.586;2023-07-13T12:36:52;1.13;;;0.50;;
71164;SDS011;58859;55.132;-1.586;2023-07-13T12:41:48;1.92;;;0.40;;
71164;SDS011;58859;55.132;-1.586;2023-07-13T12:44:16;1.85;;;0.60;;
71164;SDS011;58859;55.132;-1.586;2023-07-13T12:46:53;1.85;;;0.63;;
71164;SDS011;58859;55.132;-1.586;2023-07-13T12:49:23;1.92;;;0.55;;
71164;SDS011;58859;55.132;-1.586;2023-07-13T12:51:56;1.33;;;0.43;;
71164;SDS011;58859;55.132;-1.586;2023-07-13T12:54:24;0.75;;;0.40;;
71164;SDS011;58859;55.132;-1.586;2023-07-13T12:56:50;1.60;;;0.50;;
71164;SDS011;58859;55.132;-1.586;2023-07-13T12:59:19;2.20;;;0.50;;
71164;SDS011;58859;55.132;-1.586;2023-07-13T13:01:47;1.60;;;0.40;;
71164;SDS011;58859;55.132;-1.586;2023-07-13T13:04:14;0.75;;;0.63;;
71164;SDS011;58859;55.132;-1.586;2023-07-13T13:06:40;1.08;;;0.30;;
71164;SDS011;58859;55.132;-1.586;2023-07-13T13:09:15;1.23;;;0.45;;
71164;SDS011;58859;55.132;-1.586;2023-07-13T13:11:41;1.07;;;0.50;;
71164;SDS011;58859;55.132;-1.586;2023-07-13T13:14:07;1.10;;;0.40;;
71164;SDS011;58859;55.132;-1.586;2023-07-13T13:16:37;1.10;;;0.40;;
71164;SDS011;58859;55.132;-1.586;2023-07-13T13:21:43;1.23;;;0.38;;
71164;SDS011;58859;55.132;-1.586;2023-07-13T13:24:15;1.80;;;0.57;;
71164;SDS011;58859;55.132;-1.586;2023-07-13T13:26:42;1.25;;;0.57;;
71164;SDS011;58859;55.132;-1.586;2023-07-13T13:29:13;0.77;;;0.60;;
71164;SDS011;58859;55.132;-1.586;2023-07-13T13:31:46;0.30;;;0.30;;
71164;SDS011;58859;55.132;-1.586;2023-07-13T13:34:15;0.95;;;0.30;;
71164;SDS011;58859;55.132;-1.586;2023-07-13T13:36:43;0.88;;;0.45;;
71164;SDS011;58859;55.132;-1.586;2023-07-13T13:39:33;0.57;;;0.40;;
71164;SDS011;58859;55.132;-1.586;2023-07-13T13:41:59;1.15;;;0.73;;
71164;SDS011;58859;55.132;-1.586;2023-07-13T13:44:25;1.35;;;0.40;;
71164;SDS011;58859;55.132;-1.586;2023-07-13T13:46:51;1.17;;;0.50;;
71164;SDS011;58859;55.132;-1.586;2023-07-13T13:49:23;1.77;;;0.55;;
71164;SDS011;58859;55.132;-1.586;2023-07-13T13:51:51;0.75;;;0.45;;
71164;SDS011;58859;55.132;-1.586;2023-07-13T13:54:18;0.93;;;0.40;;
71164;SDS011;58859;55.132;-1.586;2023-07-13T13:56:46;1.13;;;0.40;;
71164;SDS011;58859;55.132;-1.586;2023-07-13T13:59:13;3.05;;;0.70;;
71164;SDS011;58859;55.132;-1.586;2023-07-13T14:01:39;0.85;;;0.40;;
71164;SDS011;58859;55.132;-1.586;2023-07-13T14:04:06;1.00;;;0.57;;
71164;SDS011;58859;55.132;-1.586;2023-07-13T14:06:32;1.33;;;0.32;;
71164;SDS011;58859;55.132;-1.586;2023-07-13T14:08:59;0.82;;;0.32;;
71164;SDS011;58859;55.132;-1.586;2023-07-13T14:11:26;1.65;;;0.40;;
71164;SDS011;58859;55.132;-1.586;2023-07-13T14:13:55;2.13;;;0.40;;
71164;SDS011;58859;55.132;-1.586;2023-07-13T14:16:26;0.85;;;0.30;;
71164;SDS011;58859;55.132;-1.586;2023-07-13T14:18:54;2.00;;;0.70;;
71164;SDS011;58859;55.132;-1.586;2023-07-13T14:21:23;0.85;;;0.40;;
71164;SDS011;58859;55.132;-1.586;2023-07-13T14:23:49;1.60;;;0.60;;
71164;SDS011;58859;55.132;-1.586;2023-07-13T14:26:16;1.33;;;0.50;;
71164;SDS011;58859;55.132;-1.586;2023-07-13T14:28:47;2.15;;;0.60;;
71164;SDS011;58859;55.132;-1.586;2023-07-13T14:31:16;0.40;;;0.40;;
71164;SDS011;58859;55.132;-1.586;2023-07-13T14:33:42;1.17;;;0.50;;
71164;SDS011;58859;55.132;-1.586;2023-07-13T14:38:58;2.92;;;1.05;;
71164;SDS011;58859;55.132;-1.586;2023-07-13T14:41:24;1.67;;;0.50;;
71164;SDS011;58859;55.132;-1.586;2023-07-13T14:43:51;3.30;;;0.50;;
71164;SDS011;58859;55.132;-1.586;2023-07-13T14:46:32;0.40;;;0.40;;
71164;SDS011;58859;55.132;-1.586;2023-07-13T14:49:23;0.93;;;0.40;;
71164;SDS011;58859;55.132;-1.586;2023-07-13T14:51:56;0.75;;;0.43;;
71164;SDS011;58859;55.132;-1.586;2023-07-13T14:54:23;1.38;;;0.80;;
71164;SDS011;58859;55.132;-1.586;2023-07-13T14:56:49;2.30;;;0.50;;
71164;SDS011;58859;55.132;-1.586;2023-07-13T14:59:15;2.72;;;0.60;;
71164;SDS011;58859;55.132;-1.586;2023-07-13T15:01:41;1.47;;;0.50;;
71164;SDS011;58859;55.132;-1.586;2023-07-13T15:04:06;0.50;;;0.40;;
71164;SDS011;58859;55.132;-1.586;2023-07-13T15:06:50;2.25;;;0.50;;
71164;SDS011;58859;55.132;-1.586;2023-07-13T15:09:20;0.90;;;0.40;;
71164;SDS011;58859;55.132;-1.586;2023-07-13T15:11:45;0.93;;;0.30;;
71164;SDS011;58859;55.132;-1.586;2023-07-13T15:14:10;1.70;;;0.30;;
71164;SDS011;58859;55.132;-1.586;2023-07-13T15:16:36;0.67;;;0.40;;
71164;SDS011;58859;55.132;-1.586;2023-07-13T15:19:01;1.83;;;0.30;;
71164;SDS011;58859;55.132;-1.586;2023-07-13T15:21:27;1.00;;;0.40;;
71164;SDS011;58859;55.132;-1.586;2023-07-13T15:23:59;1.30;;;0.50;;
71164;SDS011;58859;55.132;-1.586;2023-07-13T15:26:25;1.45;;;0.50;;
71164;SDS011;58859;55.132;-1.586;2023-07-13T15:28:51;0.20;;;0.20;;
71164;SDS011;58859;55.132;-1.586;2023-07-13T15:31:24;2.37;;;0.70;;
71164;SDS011;58859;55.132;-1.586;2023-07-13T15:33:55;0.93;;;0.38;;
71164;SDS011;58859;55.132;-1.586;2023-07-13T15:36:22;1.23;;;0.50;;
71164;SDS011;58859;55.132;-1.586;2023-07-13T15:38:48;1.52;;;0.40;;
71164;SDS011;58859;55.132;-1.586;2023-07-13T15:43:50;1.17;;;0.40;;
71164;SDS011;58859;55.132;-1.586;2023-07-13T15:46:18;2.42;;;0.40;;
71164;SDS011;58859;55.132;-1.586;2023-07-13T15:48:47;1.92;;;0.30;;
71164;SDS011;58859;55.132;-1.586;2023-07-13T15:51:17;0.50;;;0.43;;
71164;SDS011;58859;55.132;-1.586;2023-07-13T15:53:45;2.72;;;0.45;;